createdAt,value
2018-12-20T00:02:01.244Z,5.50
2018-12-20T00:04:28.903Z,5.50
2018-12-20T00:06:56.600Z,5.50
2018-12-20T00:09:24.295Z,5.50
2018-12-20T00:11:51.836Z,5.40
2018-12-20T00:14:19.679Z,5.50
2018-12-20T00:16:49.967Z,5.50
2018-12-20T00:19:17.443Z,5.40
2018-12-20T00:21:45.011Z,5.40
2018-12-20T00:24:12.629Z,5.50
2018-12-20T00:26:40.455Z,5.50
2018-12-20T00:29:08.043Z,5.40
2018-12-20T00:31:35.614Z,5.50
2018-12-20T00:34:03.196Z,5.40
2018-12-20T00:36:30.937Z,5.50
2018-12-20T00:38:58.461Z,5.40
2018-12-20T00:41:25.971Z,5.40
2018-12-20T00:43:53.553Z,5.40
2018-12-20T00:46:21.228Z,5.50
2018-12-20T00:48:48.815Z,5.50
2018-12-20T00:51:16.421Z,5.50
2018-12-20T00:53:44.356Z,5.40
2018-12-20T00:56:13.236Z,5.40
2018-12-20T00:58:40.854Z,5.40
2018-12-20T01:01:08.559Z,5.40
2018-12-20T01:03:36.338Z,5.40
2018-12-20T01:06:04.139Z,5.30
2018-12-20T01:08:31.885Z,5.30
2018-12-20T01:11:00.456Z,5.40
2018-12-20T01:13:28.022Z,5.30
2018-12-20T01:15:55.508Z,5.30
2018-12-20T01:18:23.115Z,5.30
2018-12-20T01:20:50.761Z,5.30
2018-12-20T01:23:18.317Z,5.30
2018-12-20T01:25:45.935Z,5.30
2018-12-20T01:28:13.771Z,5.30
2018-12-20T01:30:41.394Z,5.30
2018-12-20T01:33:09.114Z,5.30
2018-12-20T01:35:36.644Z,5.30
2018-12-20T01:38:04.171Z,5.30
2018-12-20T01:40:31.714Z,5.30
2018-12-20T01:42:59.367Z,5.40
2018-12-20T01:45:27.085Z,5.40
2018-12-20T01:47:54.895Z,5.40
2018-12-20T01:50:22.441Z,5.30
2018-12-20T01:52:49.986Z,5.30
2018-12-20T01:55:17.738Z,5.30
2018-12-20T01:57:45.373Z,5.30
2018-12-20T02:00:13.375Z,5.40
2018-12-20T02:02:40.907Z,5.40
2018-12-20T02:05:08.775Z,5.40
2018-12-20T02:07:36.464Z,5.40
2018-12-20T02:10:04.905Z,5.40
2018-12-20T02:12:32.438Z,5.40
2018-12-20T02:15:01.732Z,5.40
2018-12-20T02:17:29.671Z,5.40
2018-12-20T02:19:57.355Z,5.40
2018-12-20T02:22:24.948Z,5.30
2018-12-20T02:24:52.574Z,5.30
2018-12-20T02:27:20.324Z,5.30
2018-12-20T02:29:48.013Z,5.40
2018-12-20T02:32:15.974Z,5.30
2018-12-20T02:34:43.464Z,5.40
2018-12-20T02:37:10.991Z,5.40
2018-12-20T02:39:38.723Z,5.30
2018-12-20T02:42:06.462Z,5.30
2018-12-20T02:44:34.010Z,5.30
2018-12-20T02:47:01.550Z,5.30
2018-12-20T02:49:29.041Z,5.30
2018-12-20T02:51:56.682Z,5.30
2018-12-20T02:54:25.299Z,5.30
2018-12-20T02:56:53.213Z,5.30
2018-12-20T02:59:20.792Z,5.30
2018-12-20T03:01:48.436Z,5.30
2018-12-20T03:04:15.979Z,5.30
2018-12-20T03:06:43.547Z,5.20
2018-12-20T03:09:11.254Z,5.30
2018-12-20T03:11:38.860Z,5.20
2018-12-20T03:14:06.430Z,5.30
2018-12-20T03:16:34.304Z,5.30
2018-12-20T03:19:02.152Z,5.30
2018-12-20T03:21:29.645Z,5.30
2018-12-20T03:23:57.178Z,5.30
2018-12-20T03:26:24.794Z,5.30
2018-12-20T03:28:52.297Z,5.30
2018-12-20T03:31:19.891Z,5.30
2018-12-20T03:33:47.470Z,5.40
2018-12-20T03:36:15.146Z,5.30
2018-12-20T03:38:42.832Z,5.30
2018-12-20T03:41:10.754Z,5.30
2018-12-20T03:43:38.636Z,5.30
2018-12-20T03:46:06.737Z,5.30
2018-12-20T03:48:34.562Z,5.30
2018-12-20T03:51:02.540Z,5.30
2018-12-20T03:53:30.194Z,5.30
2018-12-20T03:55:57.901Z,5.30
2018-12-20T03:58:25.506Z,5.30
2018-12-20T04:00:53.319Z,5.40
2018-12-20T04:03:21.231Z,5.30
2018-12-20T04:05:48.943Z,5.40
2018-12-20T04:08:16.712Z,5.30
2018-12-20T04:10:44.444Z,5.30
2018-12-20T04:13:12.101Z,5.30
2018-12-20T04:15:39.905Z,5.30
2018-12-20T04:18:07.698Z,5.40
2018-12-20T04:20:36.021Z,5.40
2018-12-20T04:23:03.631Z,5.40
2018-12-20T04:25:31.229Z,5.40
2018-12-20T04:27:59.138Z,5.40
2018-12-20T04:30:26.716Z,5.50
2018-12-20T04:32:54.985Z,5.40
2018-12-20T04:35:22.644Z,5.40
2018-12-20T04:37:50.177Z,5.40
2018-12-20T04:40:17.897Z,5.40
2018-12-20T04:42:45.938Z,5.40
2018-12-20T04:45:13.723Z,5.50
2018-12-20T04:47:41.261Z,5.50
2018-12-20T04:50:09.158Z,5.50
2018-12-20T04:52:36.771Z,5.50
2018-12-20T04:55:04.411Z,5.50
2018-12-20T04:57:32.623Z,5.50
2018-12-20T05:00:00.139Z,5.50
2018-12-20T05:02:27.863Z,5.50
2018-12-20T05:04:55.952Z,5.50
2018-12-20T05:07:23.838Z,5.50
2018-12-20T05:09:51.752Z,5.40
2018-12-20T05:12:19.409Z,5.50
2018-12-20T05:14:47.106Z,5.50
2018-12-20T05:17:14.605Z,5.50
2018-12-20T05:19:42.185Z,5.50
2018-12-20T05:22:09.875Z,5.50
2018-12-20T05:24:38.323Z,5.50
2018-12-20T05:27:06.344Z,5.50
2018-12-20T05:29:34.059Z,5.50
2018-12-20T05:32:01.984Z,5.50
2018-12-20T05:34:29.778Z,5.50
2018-12-20T05:36:57.452Z,5.50
2018-12-20T05:39:25.452Z,5.50
2018-12-20T05:41:53.204Z,5.50
2018-12-20T05:44:20.890Z,5.50
2018-12-20T05:46:48.582Z,5.50
2018-12-20T05:49:16.769Z,5.50
2018-12-20T05:51:44.568Z,5.50
2018-12-20T05:54:12.296Z,5.60
2018-12-20T05:56:39.893Z,5.60
2018-12-20T05:59:07.797Z,5.60
2018-12-20T06:01:35.368Z,5.60
2018-12-20T06:04:02.890Z,5.70
2018-12-20T06:06:30.458Z,5.70
2018-12-20T06:08:58.142Z,5.70
2018-12-20T06:11:25.888Z,5.70
2018-12-20T06:13:55.206Z,5.80
2018-12-20T06:16:23.208Z,5.80
2018-12-20T06:18:50.860Z,5.80
2018-12-20T06:21:18.675Z,5.80
2018-12-20T06:23:46.252Z,5.70
2018-12-20T06:26:13.841Z,5.80
2018-12-20T06:28:41.844Z,5.70
2018-12-20T06:31:09.470Z,5.70
2018-12-20T06:33:37.028Z,5.70
2018-12-20T06:36:04.622Z,5.70
2018-12-20T06:38:32.148Z,5.80
2018-12-20T06:40:59.647Z,5.80
2018-12-20T06:43:27.130Z,5.80
2018-12-20T06:45:54.653Z,5.90
2018-12-20T06:48:22.468Z,5.90
2018-12-20T06:50:49.946Z,5.90
2018-12-20T06:53:17.436Z,6.00
2018-12-20T06:55:44.963Z,6.10
2018-12-20T06:58:12.552Z,6.10
2018-12-20T07:00:40.829Z,6.10
2018-12-20T07:03:08.349Z,6.10
2018-12-20T07:05:35.821Z,6.10
2018-12-20T07:08:03.334Z,6.10
2018-12-20T07:10:30.895Z,6.10
2018-12-20T07:12:58.442Z,6.10
2018-12-20T07:15:25.932Z,6.10
2018-12-20T07:17:53.637Z,6.10
2018-12-20T07:20:21.133Z,6.10
2018-12-20T07:22:48.622Z,6.10
2018-12-20T07:25:16.101Z,6.10
2018-12-20T07:27:43.951Z,6.00
2018-12-20T07:30:12.463Z,6.00
2018-12-20T07:32:40.112Z,6.00
2018-12-20T07:35:07.595Z,6.00
2018-12-20T07:37:35.088Z,6.00
2018-12-20T07:40:02.986Z,6.00
2018-12-20T07:42:30.483Z,6.00
2018-12-20T07:44:57.948Z,6.00
2018-12-20T07:47:26.331Z,6.00
2018-12-20T07:49:53.812Z,6.00
2018-12-20T07:52:21.372Z,6.00
2018-12-20T07:54:48.880Z,6.10
2018-12-20T07:57:16.349Z,6.10
2018-12-20T07:59:43.847Z,6.10
2018-12-20T08:02:11.543Z,6.10
2018-12-20T08:04:39.703Z,6.10
2018-12-20T08:07:07.293Z,6.10
2018-12-20T08:09:34.847Z,6.10
2018-12-20T08:12:02.379Z,6.20
2018-12-20T08:14:29.863Z,6.20
2018-12-20T08:16:57.327Z,6.20
2018-12-20T08:19:24.864Z,6.20
2018-12-20T08:21:52.349Z,6.30
2018-12-20T08:24:19.847Z,6.30
2018-12-20T08:26:47.364Z,6.30
2018-12-20T08:29:14.898Z,6.40
2018-12-20T08:31:42.425Z,6.40
2018-12-20T08:34:10.008Z,6.40
2018-12-20T08:36:37.476Z,6.40
2018-12-20T08:39:06.663Z,6.50
2018-12-20T08:41:34.179Z,6.50
2018-12-20T08:44:01.731Z,6.50
2018-12-20T08:46:29.199Z,6.50
2018-12-20T08:48:56.679Z,6.60
2018-12-20T08:51:24.167Z,6.60
2018-12-20T08:53:51.660Z,6.60
2018-12-20T08:56:19.271Z,6.60
2018-12-20T08:58:46.750Z,6.70
2018-12-20T09:01:14.238Z,6.70
2018-12-20T09:03:41.715Z,6.70
2018-12-20T09:06:09.216Z,6.70
2018-12-20T09:08:36.680Z,6.80
2018-12-20T09:11:04.167Z,6.80
2018-12-20T09:13:31.626Z,6.80
2018-12-20T09:15:59.131Z,6.80
2018-12-20T09:18:26.626Z,6.80
2018-12-20T09:20:54.137Z,6.80
2018-12-20T09:23:21.753Z,6.90
2018-12-20T09:25:50.001Z,6.90
2018-12-20T09:28:17.923Z,6.90
2018-12-20T09:30:45.502Z,7.00
2018-12-20T09:33:12.946Z,7.00
2018-12-20T09:35:40.889Z,7.00
2018-12-20T09:38:08.394Z,7.00
2018-12-20T09:40:35.913Z,7.10
2018-12-20T09:43:03.522Z,7.10
2018-12-20T09:45:31.012Z,7.10
2018-12-20T09:48:04.432Z,7.10
2018-12-20T09:50:32.007Z,7.10
2018-12-20T09:52:59.493Z,7.10
2018-12-20T09:55:26.961Z,7.10
2018-12-20T09:57:54.479Z,7.20
2018-12-20T10:00:22.055Z,7.20
2018-12-20T10:02:49.523Z,7.20
2018-12-20T10:05:16.969Z,7.20
2018-12-20T10:07:44.449Z,7.20
2018-12-20T10:10:12.161Z,7.20
2018-12-20T10:12:39.935Z,7.30
2018-12-20T10:15:07.451Z,7.30
2018-12-20T10:17:34.914Z,7.30
2018-12-20T10:20:02.418Z,7.30
2018-12-20T10:22:30.615Z,7.40
2018-12-20T10:24:58.113Z,7.40
2018-12-20T10:27:31.419Z,7.40
2018-12-20T10:29:55.119Z,7.40
2018-12-20T10:32:22.692Z,7.40
2018-12-20T10:34:50.151Z,7.50
2018-12-20T10:37:17.609Z,7.50
2018-12-20T10:39:45.158Z,7.50
2018-12-20T10:42:12.724Z,7.50
2018-12-20T10:44:40.177Z,7.50
2018-12-20T10:47:13.466Z,7.50
2018-12-20T10:49:40.914Z,7.60
2018-12-20T10:52:08.383Z,7.60
2018-12-20T10:54:35.837Z,7.60
2018-12-20T10:57:03.923Z,7.60
2018-12-20T10:59:31.981Z,7.60
2018-12-20T11:02:05.127Z,7.60
2018-12-20T11:04:34.556Z,7.60
2018-12-20T11:07:07.778Z,7.70
2018-12-20T11:09:41.209Z,7.70
2018-12-20T11:12:08.954Z,7.70
2018-12-20T11:14:36.455Z,7.70
2018-12-20T11:17:04.013Z,7.70
2018-12-20T11:19:31.474Z,7.70
2018-12-20T11:21:58.968Z,7.80
2018-12-20T11:24:26.525Z,7.80
2018-12-20T11:26:54.186Z,7.80
2018-12-20T11:29:21.634Z,7.80
2018-12-20T11:31:49.096Z,7.80
2018-12-20T11:34:16.654Z,7.90
2018-12-20T11:36:44.929Z,7.90
2018-12-20T11:39:12.494Z,7.90
2018-12-20T11:41:40.486Z,7.90
2018-12-20T11:44:08.046Z,8.00
2018-12-20T11:46:35.687Z,8.00
2018-12-20T11:49:03.247Z,8.00
2018-12-20T11:51:31.012Z,8.10
2018-12-20T11:53:58.662Z,8.00
2018-12-20T11:56:26.114Z,8.10
2018-12-20T11:58:53.689Z,8.10
2018-12-20T12:01:21.227Z,8.10
2018-12-20T12:03:57.179Z,8.20
2018-12-20T12:06:18.166Z,8.20
2018-12-20T12:08:45.672Z,8.20
2018-12-20T12:11:13.125Z,8.20
2018-12-20T12:13:40.677Z,8.20
2018-12-20T12:16:08.231Z,8.30
2018-12-20T12:18:35.761Z,8.30
2018-12-20T12:21:03.521Z,8.30
2018-12-20T12:23:30.995Z,8.30
2018-12-20T12:25:58.467Z,8.30
2018-12-20T12:28:25.934Z,8.30
2018-12-20T12:30:53.400Z,8.30
2018-12-20T12:33:20.933Z,8.40
2018-12-20T12:35:48.481Z,8.40
2018-12-20T12:38:15.962Z,8.40
2018-12-20T12:40:43.733Z,8.40
2018-12-20T12:43:11.196Z,8.50
2018-12-20T12:45:38.668Z,8.50
2018-12-20T12:48:06.169Z,8.50
2018-12-20T12:50:33.658Z,8.60
2018-12-20T12:53:01.097Z,8.60
2018-12-20T12:55:29.159Z,8.60
2018-12-20T12:58:04.447Z,8.70
2018-12-20T13:00:26.193Z,8.70
2018-12-20T13:02:53.678Z,8.70
2018-12-20T13:05:21.444Z,8.80
2018-12-20T13:07:48.911Z,8.70
2018-12-20T13:10:16.373Z,8.80
2018-12-20T13:12:43.831Z,8.70
2018-12-20T13:15:11.374Z,8.80
2018-12-20T13:17:38.821Z,8.80
2018-12-20T13:20:08.630Z,8.90
2018-12-20T13:22:36.079Z,8.90
2018-12-20T13:25:03.761Z,8.90
2018-12-20T13:27:31.286Z,8.90
2018-12-20T13:29:58.952Z,8.90
2018-12-20T13:32:26.403Z,9.00
2018-12-20T13:34:53.923Z,9.00
2018-12-20T13:37:21.382Z,9.00
2018-12-20T13:39:49.108Z,9.00
2018-12-20T13:42:16.674Z,9.00
2018-12-20T13:44:44.164Z,9.00
2018-12-20T13:47:11.724Z,8.90
2018-12-20T13:49:39.171Z,8.90
2018-12-20T13:52:06.641Z,8.90
2018-12-20T13:54:34.086Z,8.80
2018-12-20T13:57:01.654Z,8.90
2018-12-20T13:59:29.211Z,8.80
2018-12-20T14:01:56.738Z,8.80
2018-12-20T14:04:24.209Z,8.80
2018-12-20T14:06:51.671Z,8.80
2018-12-20T14:09:19.923Z,8.80
2018-12-20T14:11:47.724Z,8.80
2018-12-20T14:14:15.589Z,8.80
2018-12-20T14:16:43.423Z,8.80
2018-12-20T14:19:10.884Z,8.80
2018-12-20T14:21:38.351Z,8.80
2018-12-20T14:24:05.879Z,8.70
2018-12-20T14:26:33.486Z,8.60
2018-12-20T14:29:01.626Z,8.60
2018-12-20T14:31:29.151Z,8.60
2018-12-20T14:33:56.679Z,8.50
2018-12-20T14:36:24.861Z,8.50
2018-12-20T14:38:52.830Z,8.50
2018-12-20T14:41:20.306Z,8.50
2018-12-20T14:43:48.248Z,8.50
2018-12-20T14:46:15.910Z,8.50
2018-12-20T14:48:43.480Z,8.50
2018-12-20T14:51:10.958Z,8.50
2018-12-20T14:53:38.740Z,8.50
2018-12-20T14:56:06.205Z,8.50
2018-12-20T14:58:33.668Z,8.50
2018-12-20T15:01:01.122Z,8.60
2018-12-20T15:03:28.695Z,8.60
2018-12-20T15:05:56.280Z,8.60
2018-12-20T15:08:23.752Z,8.60
2018-12-20T15:10:51.284Z,8.50
2018-12-20T15:13:18.853Z,8.50
2018-12-20T15:15:47.325Z,8.50
2018-12-20T15:18:14.847Z,8.50
2018-12-20T15:20:42.348Z,8.50
2018-12-20T15:23:09.818Z,8.40
2018-12-20T15:25:37.281Z,8.40
2018-12-20T15:28:04.746Z,8.30
2018-12-20T15:30:32.193Z,8.30
2018-12-20T15:33:01.104Z,8.30
2018-12-20T15:35:32.185Z,8.30
2018-12-20T15:38:01.210Z,8.30
2018-12-20T15:40:29.510Z,8.30
2018-12-20T15:42:57.039Z,8.30
2018-12-20T15:45:24.505Z,8.30
2018-12-20T15:47:51.988Z,8.30
2018-12-20T15:50:19.982Z,8.20
2018-12-20T15:52:47.582Z,8.20
2018-12-20T15:55:15.257Z,8.20
2018-12-20T15:57:42.873Z,8.10
2018-12-20T16:00:10.329Z,8.20
2018-12-20T16:02:37.820Z,8.10
2018-12-20T16:05:05.585Z,8.10
2018-12-20T16:07:33.060Z,8.20
2018-12-20T16:10:00.515Z,8.10
2018-12-20T16:12:28.254Z,8.10
2018-12-20T16:14:55.790Z,8.10
2018-12-20T16:17:23.242Z,8.10
2018-12-20T16:19:52.283Z,8.10
2018-12-20T16:22:19.804Z,8.00
2018-12-20T16:24:47.389Z,8.00
2018-12-20T16:27:14.915Z,8.00
2018-12-20T16:29:42.386Z,8.00
2018-12-20T16:32:09.847Z,8.00
2018-12-20T16:34:37.355Z,8.00
2018-12-20T16:37:04.879Z,8.00
2018-12-20T16:39:32.346Z,8.00
2018-12-20T16:41:59.811Z,8.00
2018-12-20T16:44:30.624Z,8.00
2018-12-20T16:46:58.586Z,8.00
2018-12-20T16:49:26.083Z,8.00
2018-12-20T16:51:53.614Z,8.00
2018-12-20T16:54:21.173Z,8.10
2018-12-20T16:56:49.396Z,8.00
2018-12-20T16:59:16.876Z,8.00
2018-12-20T17:01:44.360Z,8.00
2018-12-20T17:04:11.842Z,8.00
2018-12-20T17:06:39.732Z,7.90
2018-12-20T17:09:07.830Z,7.90
2018-12-20T17:11:35.291Z,8.00
2018-12-20T17:14:02.849Z,7.90
2018-12-20T17:16:30.306Z,8.00
2018-12-20T17:18:57.794Z,8.00
2018-12-20T17:21:25.244Z,7.90
2018-12-20T17:23:52.804Z,8.00
2018-12-20T17:26:20.319Z,8.00
2018-12-20T17:28:47.798Z,8.00
2018-12-20T17:31:15.352Z,8.00
2018-12-20T17:33:42.806Z,7.90
2018-12-20T17:36:10.291Z,7.90
2018-12-20T17:38:37.854Z,7.90
2018-12-20T17:41:05.320Z,7.90
2018-12-20T17:43:32.869Z,7.90
2018-12-20T17:46:00.372Z,7.80
2018-12-20T17:48:29.441Z,7.90
2018-12-20T17:50:57.155Z,7.80
2018-12-20T17:53:24.603Z,7.80
2018-12-20T17:55:52.095Z,7.80
2018-12-20T17:58:19.548Z,7.80
2018-12-20T18:00:47.025Z,7.80
2018-12-20T18:03:15.290Z,7.90
2018-12-20T18:05:42.759Z,7.80
2018-12-20T18:08:10.418Z,7.90
2018-12-20T18:10:38.264Z,7.90
2018-12-20T18:13:05.716Z,7.90
2018-12-20T18:15:33.289Z,7.90
2018-12-20T18:18:00.848Z,7.80
2018-12-20T18:20:28.327Z,7.80
2018-12-20T18:22:55.900Z,7.90
2018-12-20T18:25:23.392Z,7.80
2018-12-20T18:27:50.885Z,7.80
2018-12-20T18:30:18.349Z,7.80
2018-12-20T18:32:45.989Z,7.80
2018-12-20T18:35:14.030Z,7.80
2018-12-20T18:37:41.508Z,7.80
2018-12-20T18:40:08.949Z,7.80
2018-12-20T18:42:36.547Z,7.70
2018-12-20T18:45:05.228Z,7.80
2018-12-20T18:47:32.790Z,7.70
2018-12-20T18:50:00.263Z,7.70
2018-12-20T18:52:27.885Z,7.70
2018-12-20T18:54:55.348Z,7.70
2018-12-20T18:57:22.871Z,7.70
2018-12-20T18:59:50.948Z,7.70
2018-12-20T19:02:18.449Z,7.70
2018-12-20T19:04:46.012Z,7.70
2018-12-20T19:07:13.474Z,7.70
2018-12-20T19:09:40.935Z,7.70
2018-12-20T19:12:08.403Z,7.70
2018-12-20T19:14:35.852Z,7.70
2018-12-20T19:17:03.422Z,7.70
2018-12-20T19:19:30.892Z,7.70
2018-12-20T19:21:59.107Z,7.70
2018-12-20T19:24:26.550Z,7.70
2018-12-20T19:26:54.024Z,7.70
2018-12-20T19:29:21.476Z,7.70
2018-12-20T19:31:48.961Z,7.70
2018-12-20T19:34:16.719Z,7.80
2018-12-20T19:36:44.203Z,7.80
2018-12-20T19:39:11.758Z,7.80
2018-12-20T19:41:39.239Z,7.80
2018-12-20T19:44:06.687Z,7.80
2018-12-20T19:46:34.186Z,7.80
2018-12-20T19:49:01.644Z,7.80
2018-12-20T19:51:29.155Z,7.90
2018-12-20T19:53:56.626Z,7.90
2018-12-20T19:56:24.447Z,7.90
2018-12-20T19:58:51.913Z,7.80
2018-12-20T20:01:19.810Z,7.80
2018-12-20T20:03:47.307Z,7.90
2018-12-20T20:06:15.181Z,7.90
2018-12-20T20:08:42.735Z,7.80
2018-12-20T20:11:10.197Z,7.80
2018-12-20T20:13:37.681Z,7.80
2018-12-20T20:16:05.171Z,7.80
2018-12-20T20:18:32.657Z,7.80
2018-12-20T20:21:00.125Z,7.80
2018-12-20T20:23:27.698Z,7.80
2018-12-20T20:25:55.151Z,7.80
2018-12-20T20:28:22.634Z,7.80
2018-12-20T20:30:50.180Z,7.80
2018-12-20T20:33:17.653Z,7.80
2018-12-20T20:35:45.192Z,7.80
2018-12-20T20:38:12.722Z,7.80
2018-12-20T20:40:40.292Z,7.80
2018-12-20T20:43:07.833Z,7.80
2018-12-20T20:45:35.407Z,7.80
2018-12-20T20:48:02.957Z,7.90
2018-12-20T20:50:30.408Z,7.80
2018-12-20T20:52:57.909Z,7.90
2018-12-20T20:55:25.359Z,7.90
2018-12-20T20:57:52.820Z,7.90
2018-12-20T21:00:20.320Z,8.00
2018-12-20T21:02:47.811Z,7.90
2018-12-20T21:05:15.275Z,7.90
2018-12-20T21:07:42.776Z,7.90
2018-12-20T21:10:10.851Z,8.00
2018-12-20T21:12:38.370Z,8.00
2018-12-20T21:15:07.846Z,8.00
2018-12-20T21:17:35.300Z,8.00
2018-12-20T21:20:02.779Z,8.00
2018-12-20T21:22:31.164Z,8.00
2018-12-20T21:24:58.655Z,8.00
2018-12-20T21:27:26.107Z,8.00
2018-12-20T21:29:53.588Z,8.00
2018-12-20T21:32:21.058Z,8.00
2018-12-20T21:34:48.544Z,8.00
2018-12-20T21:37:16.019Z,8.00
2018-12-20T21:39:43.503Z,8.00
2018-12-20T21:42:10.960Z,8.00
2018-12-20T21:44:38.422Z,8.00
2018-12-20T21:47:05.881Z,8.00
2018-12-20T21:49:33.355Z,8.00
2018-12-20T21:52:01.704Z,8.00
2018-12-20T21:54:29.375Z,8.00
2018-12-20T21:56:57.068Z,8.00
2018-12-20T21:59:25.385Z,8.10
2018-12-20T22:01:54.403Z,8.00
2018-12-20T22:04:22.062Z,8.10
2018-12-20T22:06:49.527Z,8.10
2018-12-20T22:09:17.066Z,8.00
2018-12-20T22:11:44.523Z,8.10
2018-12-20T22:14:11.994Z,8.10
2018-12-20T22:16:40.064Z,8.10
2018-12-20T22:19:07.593Z,8.10
2018-12-20T22:21:35.157Z,8.10
2018-12-20T22:24:02.702Z,8.10
2018-12-20T22:26:30.182Z,8.10
2018-12-20T22:28:57.667Z,8.10
2018-12-20T22:31:25.184Z,8.10
2018-12-20T22:33:52.655Z,8.10
2018-12-20T22:36:20.222Z,8.10
2018-12-20T22:38:48.392Z,8.10
2018-12-20T22:41:15.882Z,8.10
2018-12-20T22:43:43.326Z,8.10
2018-12-20T22:46:11.206Z,8.20
2018-12-20T22:48:38.867Z,8.20
2018-12-20T22:51:06.375Z,8.20
2018-12-20T22:53:33.825Z,8.20
2018-12-20T22:56:01.286Z,8.20
2018-12-20T22:58:28.768Z,8.20
2018-12-20T23:00:56.286Z,8.20
2018-12-20T23:03:24.041Z,8.20
2018-12-20T23:05:51.627Z,8.20
2018-12-20T23:08:19.177Z,8.20
2018-12-20T23:10:46.827Z,8.30
2018-12-20T23:13:14.283Z,8.20
2018-12-20T23:15:41.867Z,8.30
2018-12-20T23:18:09.574Z,8.20
2018-12-20T23:20:37.055Z,8.30
2018-12-20T23:23:04.507Z,8.20
2018-12-20T23:25:32.000Z,8.30
2018-12-20T23:28:00.172Z,8.20
2018-12-20T23:30:27.635Z,8.20
2018-12-20T23:32:55.089Z,8.30
2018-12-20T23:35:22.550Z,8.20
2018-12-20T23:37:50.024Z,8.20
2018-12-20T23:40:17.481Z,8.20
2018-12-20T23:42:44.960Z,8.20
2018-12-20T23:45:12.409Z,8.20
2018-12-20T23:47:39.890Z,8.20
2018-12-20T23:50:07.373Z,8.30
2018-12-20T23:52:34.843Z,8.20
2018-12-20T23:55:02.302Z,8.20
2018-12-20T23:57:29.769Z,8.20
2018-12-20T23:59:57.863Z,8.20
